sensor_id;sensor_type;location;lat;lon;timestamp;pressure;altitude;pressure_sealevel;temperature;humidity
13594;BME280;6449;47.666;9.160;2023-11-19T00:02:38;97180.56;;;7.77;100.00
13594;BME280;6449;47.666;9.160;2023-11-19T00:07:33;97173.84;;;7.87;100.00
13594;BME280;6449;47.666;9.160;2023-11-19T00:12:27;97153.72;;;7.90;100.00
13594;BME280;6449;47.666;9.160;2023-11-19T00:17:21;97134.41;;;7.92;100.00
13594;BME280;6449;47.666;9.160;2023-11-19T00:22:14;97124.25;;;7.87;100.00
13594;BME280;6449;47.666;9.160;2023-11-19T00:27:11;97121.56;;;7.89;100.00
13594;BME280;6449;47.666;9.160;2023-11-19T00:32:05;97110.31;;;7.88;100.00
13594;BME280;6449;47.666;9.160;2023-11-19T00:36:59;97104.22;;;8.02;100.00
13594;BME280;6449;47.666;9.160;2023-11-19T00:41:53;97103.47;;;8.00;100.00
13594;BME280;6449;47.666;9.160;2023-11-19T00:46:47;97116.81;;;7.96;100.00
13594;BME280;6449;47.666;9.160;2023-11-19T00:51:41;97088.09;;;7.96;100.00
13594;BME280;6449;47.666;9.160;2023-11-19T00:56:34;97079.94;;;8.14;100.00
13594;BME280;6449;47.666;9.160;2023-11-19T01:01:29;97110.53;;;8.12;100.00
13594;BME280;6449;47.666;9.160;2023-11-19T01:06:31;97106.59;;;8.20;100.00
13594;BME280;6449;47.666;9.160;2023-11-19T01:11:25;97097.75;;;8.22;100.00
13594;BME280;6449;47.666;9.160;2023-11-19T01:16:20;97109.13;;;8.21;100.00
13594;BME280;6449;47.666;9.160;2023-11-19T01:21:14;97118.44;;;8.25;100.00
13594;BME280;6449;47.666;9.160;2023-11-19T01:26:09;97103.06;;;8.21;100.00
13594;BME280;6449;47.666;9.160;2023-11-19T01:31:05;97086.47;;;8.22;100.00
13594;BME280;6449;47.666;9.160;2023-11-19T01:36:00;97095.78;;;8.26;100.00
13594;BME280;6449;47.666;9.160;2023-11-19T01:40:56;97099.22;;;8.26;100.00
13594;BME280;6449;47.666;9.160;2023-11-19T01:45:51;97095.13;;;8.22;100.00
13594;BME280;6449;47.666;9.160;2023-11-19T01:50:45;97080.59;;;8.18;100.00
13594;BME280;6449;47.666;9.160;2023-11-19T01:55:41;97075.91;;;8.23;100.00
13594;BME280;6449;47.666;9.160;2023-11-19T02:00:34;97067.53;;;8.18;100.00
13594;BME280;6449;47.666;9.160;2023-11-19T02:05:30;97061.56;;;8.16;100.00
13594;BME280;6449;47.666;9.160;2023-11-19T02:10:24;97043.59;;;8.11;100.00
13594;BME280;6449;47.666;9.160;2023-11-19T02:15:18;97026.97;;;8.12;100.00
13594;BME280;6449;47.666;9.160;2023-11-19T02:20:12;97027.09;;;8.11;100.00
13594;BME280;6449;47.666;9.160;2023-11-19T02:25:17;97009.09;;;8.06;100.00
13594;BME280;6449;47.666;9.160;2023-11-19T02:30:15;96991.84;;;8.04;100.00
13594;BME280;6449;47.666;9.160;2023-11-19T02:35:09;97007.03;;;8.11;100.00
13594;BME280;6449;47.666;9.160;2023-11-19T02:40:04;97007.75;;;8.13;100.00
13594;BME280;6449;47.666;9.160;2023-11-19T02:45:00;97000.75;;;8.14;100.00
13594;BME280;6449;47.666;9.160;2023-11-19T02:50:00;97007.88;;;8.12;100.00
13594;BME280;6449;47.666;9.160;2023-11-19T02:54:53;97017.06;;;8.18;100.00
13594;BME280;6449;47.666;9.160;2023-11-19T02:59:48;97015.31;;;8.18;100.00
13594;BME280;6449;47.666;9.160;2023-11-19T03:04:41;97008.59;;;8.14;100.00
13594;BME280;6449;47.666;9.160;2023-11-19T03:09:39;97009.34;;;8.16;100.00
13594;BME280;6449;47.666;9.160;2023-11-19T03:14:33;97002.66;;;8.12;100.00
13594;BME280;6449;47.666;9.160;2023-11-19T03:19:28;96998.25;;;8.12;100.00
13594;BME280;6449;47.666;9.160;2023-11-19T03:24:22;96980.72;;;8.14;100.00
13594;BME280;6449;47.666;9.160;2023-11-19T03:29:18;96991.81;;;8.18;100.00
13594;BME280;6449;47.666;9.160;2023-11-19T03:34:11;96995.13;;;8.20;100.00
13594;BME280;6449;47.666;9.160;2023-11-19T03:39:05;97006.44;;;8.21;100.00
13594;BME280;6449;47.666;9.160;2023-11-19T03:43:58;97006.66;;;8.30;100.00
13594;BME280;6449;47.666;9.160;2023-11-19T03:48:53;97009.38;;;8.29;100.00
13594;BME280;6449;47.666;9.160;2023-11-19T03:53:47;97018.06;;;8.29;100.00
13594;BME280;6449;47.666;9.160;2023-11-19T03:58:40;97015.03;;;8.35;100.00
13594;BME280;6449;47.666;9.160;2023-11-19T04:03:34;97016.09;;;8.33;100.00
13594;BME280;6449;47.666;9.160;2023-11-19T04:08:28;97009.47;;;8.42;100.00
13594;BME280;6449;47.666;9.160;2023-11-19T04:13:22;97009.91;;;8.48;100.00
13594;BME280;6449;47.666;9.160;2023-11-19T04:18:16;97016.94;;;8.60;100.00
13594;BME280;6449;47.666;9.160;2023-11-19T04:23:09;97029.88;;;8.62;100.00
13594;BME280;6449;47.666;9.160;2023-11-19T04:28:04;97018.28;;;8.66;100.00
13594;BME280;6449;47.666;9.160;2023-11-19T04:32:58;97024.59;;;8.76;100.00
13594;BME280;6449;47.666;9.160;2023-11-19T04:37:51;97014.66;;;8.81;100.00
13594;BME280;6449;47.666;9.160;2023-11-19T04:42:45;97023.34;;;8.95;100.00
13594;BME280;6449;47.666;9.160;2023-11-19T04:47:39;97018.16;;;9.07;100.00
13594;BME280;6449;47.666;9.160;2023-11-19T04:52:33;97025.22;;;9.05;100.00
13594;BME280;6449;47.666;9.160;2023-11-19T04:57:26;97010.72;;;9.01;100.00
13594;BME280;6449;47.666;9.160;2023-11-19T05:02:20;96997.00;;;8.98;100.00
13594;BME280;6449;47.666;9.160;2023-11-19T05:07:14;97009.47;;;9.07;100.00
13594;BME280;6449;47.666;9.160;2023-11-19T05:12:11;97007.34;;;8.99;100.00
13594;BME280;6449;47.666;9.160;2023-11-19T05:17:04;97011.84;;;8.97;100.00
13594;BME280;6449;47.666;9.160;2023-11-19T05:22:02;97021.06;;;9.03;100.00
13594;BME280;6449;47.666;9.160;2023-11-19T05:26:57;97013.41;;;9.00;100.00
13594;BME280;6449;47.666;9.160;2023-11-19T05:31:51;97011.78;;;9.11;100.00
13594;BME280;6449;47.666;9.160;2023-11-19T05:36:45;97001.59;;;9.19;100.00
13594;BME280;6449;47.666;9.160;2023-11-19T05:41:39;96983.53;;;9.16;100.00
13594;BME280;6449;47.666;9.160;2023-11-19T05:46:35;96972.84;;;9.32;100.00
13594;BME280;6449;47.666;9.160;2023-11-19T05:51:36;96978.28;;;9.29;100.00
13594;BME280;6449;47.666;9.160;2023-11-19T05:56:31;96981.59;;;9.31;100.00
13594;BME280;6449;47.666;9.160;2023-11-19T06:01:25;96994.88;;;9.41;100.00
13594;BME280;6449;47.666;9.160;2023-11-19T06:06:20;97002.00;;;9.52;100.00
13594;BME280;6449;47.666;9.160;2023-11-19T06:11:13;97012.97;;;9.57;100.00
13594;BME280;6449;47.666;9.160;2023-11-19T06:16:10;97019.59;;;9.50;100.00
13594;BME280;6449;47.666;9.160;2023-11-19T06:21:07;97003.47;;;9.56;100.00
13594;BME280;6449;47.666;9.160;2023-11-19T06:26:02;97011.00;;;9.60;100.00
13594;BME280;6449;47.666;9.160;2023-11-19T06:30:57;97000.41;;;9.62;100.00
13594;BME280;6449;47.666;9.160;2023-11-19T06:35:51;96998.06;;;9.83;100.00
13594;BME280;6449;47.666;9.160;2023-11-19T06:40:47;97001.81;;;9.91;100.00
13594;BME280;6449;47.666;9.160;2023-11-19T06:45:47;96992.75;;;9.95;100.00
13594;BME280;6449;47.666;9.160;2023-11-19T06:50:40;96993.50;;;9.97;100.00
13594;BME280;6449;47.666;9.160;2023-11-19T06:55:34;96996.84;;;10.00;100.00
13594;BME280;6449;47.666;9.160;2023-11-19T07:00:27;97008.97;;;10.01;100.00
13594;BME280;6449;47.666;9.160;2023-11-19T07:05:22;97005.59;;;10.11;100.00
13594;BME280;6449;47.666;9.160;2023-11-19T07:10:16;97014.78;;;10.17;100.00
13594;BME280;6449;47.666;9.160;2023-11-19T07:15:10;97018.13;;;10.32;100.00
13594;BME280;6449;47.666;9.160;2023-11-19T07:20:08;97017.13;;;10.45;100.00
13594;BME280;6449;47.666;9.160;2023-11-19T07:25:08;97017.63;;;10.51;100.00
13594;BME280;6449;47.666;9.160;2023-11-19T07:30:05;97010.00;;;10.59;100.00
13594;BME280;6449;47.666;9.160;2023-11-19T07:35:02;97017.63;;;10.51;100.00
13594;BME280;6449;47.666;9.160;2023-11-19T07:39:56;97019.06;;;10.55;100.00
13594;BME280;6449;47.666;9.160;2023-11-19T07:44:51;97012.59;;;10.71;100.00
13594;BME280;6449;47.666;9.160;2023-11-19T07:49:46;97013.78;;;10.79;100.00
13594;BME280;6449;47.666;9.160;2023-11-19T07:54:40;97020.81;;;10.78;100.00
13594;BME280;6449;47.666;9.160;2023-11-19T07:59:33;97025.72;;;10.83;100.00
13594;BME280;6449;47.666;9.160;2023-11-19T08:04:28;97026.09;;;10.89;100.00
13594;BME280;6449;47.666;9.160;2023-11-19T08:09:25;97033.75;;;10.92;100.00
13594;BME280;6449;47.666;9.160;2023-11-19T08:14:19;97026.47;;;10.96;100.00
13594;BME280;6449;47.666;9.160;2023-11-19T08:19:14;97037.19;;;10.93;100.00
13594;BME280;6449;47.666;9.160;2023-11-19T08:24:09;97041.63;;;10.92;100.00
13594;BME280;6449;47.666;9.160;2023-11-19T08:29:03;97040.06;;;11.01;100.00
13594;BME280;6449;47.666;9.160;2023-11-19T08:33:56;97043.44;;;11.03;100.00
13594;BME280;6449;47.666;9.160;2023-11-19T08:38:50;97042.84;;;11.22;100.00
13594;BME280;6449;47.666;9.160;2023-11-19T08:43:45;97044.03;;;11.18;100.00
13594;BME280;6449;47.666;9.160;2023-11-19T08:48:39;97043.34;;;11.27;100.00
13594;BME280;6449;47.666;9.160;2023-11-19T08:53:32;97041.22;;;11.43;100.00
13594;BME280;6449;47.666;9.160;2023-11-19T08:58:26;97038.00;;;11.51;100.00
13594;BME280;6449;47.666;9.160;2023-11-19T09:03:21;97041.00;;;11.58;100.00
13594;BME280;6449;47.666;9.160;2023-11-19T09:08:18;97053.66;;;11.64;100.00
13594;BME280;6449;47.666;9.160;2023-11-19T09:13:11;97055.66;;;11.60;100.00
13594;BME280;6449;47.666;9.160;2023-11-19T09:18:05;97051.00;;;11.52;100.00
13594;BME280;6449;47.666;9.160;2023-11-19T09:23:00;97047.22;;;11.68;100.00
13594;BME280;6449;47.666;9.160;2023-11-19T09:27:56;97060.56;;;11.76;100.00
13594;BME280;6449;47.666;9.160;2023-11-19T09:32:49;97064.84;;;11.77;100.00
13594;BME280;6449;47.666;9.160;2023-11-19T09:37:43;97077.66;;;11.82;100.00
13594;BME280;6449;47.666;9.160;2023-11-19T09:42:44;97086.34;;;11.71;100.00
13594;BME280;6449;47.666;9.160;2023-11-19T09:47:38;97087.66;;;11.76;100.00
13594;BME280;6449;47.666;9.160;2023-11-19T09:52:31;97079.09;;;11.86;100.00
13594;BME280;6449;47.666;9.160;2023-11-19T09:57:27;97070.88;;;11.90;100.00
13594;BME280;6449;47.666;9.160;2023-11-19T10:02:31;97061.53;;;11.97;100.00
13594;BME280;6449;47.666;9.160;2023-11-19T10:07:28;97047.44;;;12.10;100.00
13594;BME280;6449;47.666;9.160;2023-11-19T10:12:21;97028.06;;;12.22;100.00
13594;BME280;6449;47.666;9.160;2023-11-19T10:17:15;97018.50;;;12.21;100.00
13594;BME280;6449;47.666;9.160;2023-11-19T10:22:11;96996.34;;;12.35;100.00
13594;BME280;6449;47.666;9.160;2023-11-19T10:27:08;97002.53;;;12.45;100.00
13594;BME280;6449;47.666;9.160;2023-11-19T10:32:02;97015.63;;;12.56;100.00
13594;BME280;6449;47.666;9.160;2023-11-19T10:37:30;97007.88;;;12.54;100.00
13594;BME280;6449;47.666;9.160;2023-11-19T10:42:25;96999.75;;;12.57;100.00
13594;BME280;6449;47.666;9.160;2023-11-19T10:47:19;96981.22;;;12.80;100.00
13594;BME280;6449;47.666;9.160;2023-11-19T10:52:32;96981.59;;;12.96;100.00
13594;BME280;6449;47.666;9.160;2023-11-19T10:57:32;96978.22;;;13.05;100.00
13594;BME280;6449;47.666;9.160;2023-11-19T11:02:35;96972.44;;;12.91;100.00
13594;BME280;6449;47.666;9.160;2023-11-19T11:07:40;96971.59;;;12.90;100.00
13594;BME280;6449;47.666;9.160;2023-11-19T11:12:36;96970.50;;;12.93;100.00
13594;BME280;6449;47.666;9.160;2023-11-19T11:17:33;96956.19;;;12.85;100.00
13594;BME280;6449;47.666;9.160;2023-11-19T11:22:37;96939.56;;;12.85;100.00
13594;BME280;6449;47.666;9.160;2023-11-19T11:28:05;96949.44;;;12.72;100.00
13594;BME280;6449;47.666;9.160;2023-11-19T11:33:20;96958.81;;;12.85;100.00
13594;BME280;6449;47.666;9.160;2023-11-19T11:38:23;96963.09;;;13.07;100.00
13594;BME280;6449;47.666;9.160;2023-11-19T11:43:53;96964.78;;;13.29;100.00
13594;BME280;6449;47.666;9.160;2023-11-19T11:48:50;96961.97;;;13.21;100.00
13594;BME280;6449;47.666;9.160;2023-11-19T11:53:47;96959.13;;;13.34;100.00
13594;BME280;6449;47.666;9.160;2023-11-19T11:58:41;96963.94;;;13.29;100.00
13594;BME280;6449;47.666;9.160;2023-11-19T12:03:38;96969.78;;;13.32;100.00
13594;BME280;6449;47.666;9.160;2023-11-19T12:08:35;96966.22;;;13.43;100.00
13594;BME280;6449;47.666;9.160;2023-11-19T12:13:54;96961.66;;;13.45;100.00
13594;BME280;6449;47.666;9.160;2023-11-19T12:18:57;96963.59;;;13.43;100.00
13594;BME280;6449;47.666;9.160;2023-11-19T12:23:58;96952.28;;;13.22;100.00
13594;BME280;6449;47.666;9.160;2023-11-19T12:29:08;96952.19;;;13.12;100.00
13594;BME280;6449;47.666;9.160;2023-11-19T12:34:09;96951.06;;;13.05;100.00
13594;BME280;6449;47.666;9.160;2023-11-19T12:39:08;96949.06;;;12.97;100.00
13594;BME280;6449;47.666;9.160;2023-11-19T12:44:12;96941.00;;;12.89;100.00
13594;BME280;6449;47.666;9.160;2023-11-19T12:49:06;96930.31;;;12.91;100.00
13594;BME280;6449;47.666;9.160;2023-11-19T12:53:59;96942.28;;;12.74;100.00
13594;BME280;6449;47.666;9.160;2023-11-19T12:58:53;96934.31;;;12.85;100.00
13594;BME280;6449;47.666;9.160;2023-11-19T13:03:48;96937.94;;;12.94;100.00
13594;BME280;6449;47.666;9.160;2023-11-19T13:08:48;96920.69;;;13.01;100.00
13594;BME280;6449;47.666;9.160;2023-11-19T13:13:57;96908.66;;;13.29;100.00
13594;BME280;6449;47.666;9.160;2023-11-19T13:18:52;96918.94;;;13.32;100.00
13594;BME280;6449;47.666;9.160;2023-11-19T13:23:47;96901.50;;;13.50;100.00
13594;BME280;6449;47.666;9.160;2023-11-19T13:28:40;96910.34;;;13.40;100.00
13594;BME280;6449;47.666;9.160;2023-11-19T13:33:34;96902.19;;;13.43;100.00
13594;BME280;6449;47.666;9.160;2023-11-19T13:38:31;96900.78;;;13.39;100.00
13594;BME280;6449;47.666;9.160;2023-11-19T13:43:27;96912.97;;;13.40;100.00
13594;BME280;6449;47.666;9.160;2023-11-19T13:48:23;96919.56;;;13.24;100.00
13594;BME280;6449;47.666;9.160;2023-11-19T13:53:20;96896.53;;;13.17;100.00
13594;BME280;6449;47.666;9.160;2023-11-19T13:58:18;96894.91;;;13.04;100.00
13594;BME280;6449;47.666;9.160;2023-11-19T14:03:11;96890.81;;;13.11;100.00
13594;BME280;6449;47.666;9.160;2023-11-19T14:08:06;96884.53;;;13.03;100.00
13594;BME280;6449;47.666;9.160;2023-11-19T14:13:18;96886.09;;;13.05;100.00
13594;BME280;6449;47.666;9.160;2023-11-19T14:18:13;96890.53;;;13.05;100.00
13594;BME280;6449;47.666;9.160;2023-11-19T14:23:07;96888.28;;;13.00;100.00
13594;BME280;6449;47.666;9.160;2023-11-19T14:28:03;96890.25;;;13.08;100.00
13594;BME280;6449;47.666;9.160;2023-11-19T14:33:00;96889.31;;;13.19;100.00
13594;BME280;6449;47.666;9.160;2023-11-19T14:37:58;96883.31;;;13.07;100.00
13594;BME280;6449;47.666;9.160;2023-11-19T14:42:52;96891.84;;;12.99;100.00
13594;BME280;6449;47.666;9.160;2023-11-19T14:47:51;96902.34;;;12.90;100.00
13594;BME280;6449;47.666;9.160;2023-11-19T14:52:53;96907.16;;;12.84;100.00
13594;BME280;6449;47.666;9.160;2023-11-19T14:57:49;96901.31;;;12.81;100.00
13594;BME280;6449;47.666;9.160;2023-11-19T15:02:57;96880.66;;;12.76;100.00
13594;BME280;6449;47.666;9.160;2023-11-19T15:07:52;96867.97;;;12.61;100.00
13594;BME280;6449;47.666;9.160;2023-11-19T15:12:52;96853.41;;;12.56;100.00
13594;BME280;6449;47.666;9.160;2023-11-19T15:17:49;96843.75;;;12.36;100.00
13594;BME280;6449;47.666;9.160;2023-11-19T15:22:48;96843.88;;;12.35;100.00
13594;BME280;6449;47.666;9.160;2023-11-19T15:27:43;96837.91;;;12.32;100.00
13594;BME280;6449;47.666;9.160;2023-11-19T15:32:46;96848.50;;;12.21;100.00
13594;BME280;6449;47.666;9.160;2023-11-19T15:37:40;96843.75;;;12.15;100.00
13594;BME280;6449;47.666;9.160;2023-11-19T15:42:36;96844.69;;;12.14;100.00
13594;BME280;6449;47.666;9.160;2023-11-19T15:47:38;96849.63;;;12.07;100.00
13594;BME280;6449;47.666;9.160;2023-11-19T15:52:42;96851.69;;;12.04;100.00
13594;BME280;6449;47.666;9.160;2023-11-19T15:57:47;96857.88;;;12.03;100.00
13594;BME280;6449;47.666;9.160;2023-11-19T16:03:04;96856.28;;;11.91;100.00
13594;BME280;6449;47.666;9.160;2023-11-19T16:08:14;96865.06;;;12.01;100.00
13594;BME280;6449;47.666;9.160;2023-11-19T16:13:13;96858.31;;;11.87;100.00
13594;BME280;6449;47.666;9.160;2023-11-19T16:18:08;96868.41;;;12.03;100.00
13594;BME280;6449;47.666;9.160;2023-11-19T16:23:08;96871.41;;;11.98;100.00
13594;BME280;6449;47.666;9.160;2023-11-19T16:28:05;96863.94;;;11.94;100.00
13594;BME280;6449;47.666;9.160;2023-11-19T16:33:02;96865.00;;;11.91;100.00
13594;BME280;6449;47.666;9.160;2023-11-19T16:38:07;96866.91;;;11.89;100.00
13594;BME280;6449;47.666;9.160;2023-11-19T16:43:01;96873.97;;;11.77;100.00
13594;BME280;6449;47.666;9.160;2023-11-19T16:47:55;96867.44;;;11.83;100.00
13594;BME280;6449;47.666;9.160;2023-11-19T16:52:50;96864.53;;;11.75;100.00
13594;BME280;6449;47.666;9.160;2023-11-19T16:57:45;96852.59;;;11.71;100.00
13594;BME280;6449;47.666;9.160;2023-11-19T17:02:38;96845.38;;;11.63;100.00
13594;BME280;6449;47.666;9.160;2023-11-19T17:07:37;96856.84;;;11.62;100.00
13594;BME280;6449;47.666;9.160;2023-11-19T17:12:31;96860.19;;;11.53;100.00
13594;BME280;6449;47.666;9.160;2023-11-19T17:17:26;96868.19;;;11.51;100.00
13594;BME280;6449;47.666;9.160;2023-11-19T17:22:25;96843.47;;;11.54;100.00
13594;BME280;6449;47.666;9.160;2023-11-19T17:27:19;96827.16;;;11.50;100.00
13594;BME280;6449;47.666;9.160;2023-11-19T17:32:15;96834.75;;;11.53;100.00
13594;BME280;6449;47.666;9.160;2023-11-19T17:37:10;96839.28;;;11.63;100.00
13594;BME280;6449;47.666;9.160;2023-11-19T17:42:07;96862.44;;;11.58;100.00
13594;BME280;6449;47.666;9.160;2023-11-19T17:47:00;96873.09;;;11.56;100.00
13594;BME280;6449;47.666;9.160;2023-11-19T17:51:54;96879.75;;;11.49;100.00
13594;BME280;6449;47.666;9.160;2023-11-19T17:56:50;96871.38;;;11.55;100.00
13594;BME280;6449;47.666;9.160;2023-11-19T18:01:44;96880.22;;;11.54;100.00
13594;BME280;6449;47.666;9.160;2023-11-19T18:06:39;96870.47;;;11.56;100.00
13594;BME280;6449;47.666;9.160;2023-11-19T18:11:36;96873.41;;;11.63;100.00
13594;BME280;6449;47.666;9.160;2023-11-19T18:16:31;96882.97;;;11.64;100.00
13594;BME280;6449;47.666;9.160;2023-11-19T18:21:25;96883.69;;;11.54;100.00
13594;BME280;6449;47.666;9.160;2023-11-19T18:26:18;96884.88;;;11.62;100.00
13594;BME280;6449;47.666;9.160;2023-11-19T18:31:11;96882.25;;;11.62;100.00
13594;BME280;6449;47.666;9.160;2023-11-19T18:36:12;96888.72;;;11.58;100.00
13594;BME280;6449;47.666;9.160;2023-11-19T18:41:07;96899.91;;;11.60;100.00
13594;BME280;6449;47.666;9.160;2023-11-19T18:46:07;96893.44;;;11.75;100.00
13594;BME280;6449;47.666;9.160;2023-11-19T18:51:02;96888.56;;;11.59;100.00
13594;BME280;6449;47.666;9.160;2023-11-19T18:55:57;96892.63;;;11.63;100.00
13594;BME280;6449;47.666;9.160;2023-11-19T19:00:51;96897.66;;;11.55;100.00
13594;BME280;6449;47.666;9.160;2023-11-19T19:05:46;96907.41;;;11.75;100.00
13594;BME280;6449;47.666;9.160;2023-11-19T19:10:39;96923.75;;;11.79;100.00
13594;BME280;6449;47.666;9.160;2023-11-19T19:15:36;96934.13;;;11.92;100.00
13594;BME280;6449;47.666;9.160;2023-11-19T19:20:41;96939.47;;;12.01;100.00
13594;BME280;6449;47.666;9.160;2023-11-19T19:25:38;96947.78;;;12.18;100.00
13594;BME280;6449;47.666;9.160;2023-11-19T19:30:32;96949.03;;;12.35;100.00
13594;BME280;6449;47.666;9.160;2023-11-19T19:35:45;96949.41;;;12.30;100.00
13594;BME280;6449;47.666;9.160;2023-11-19T19:41:09;96956.09;;;12.34;100.00
13594;BME280;6449;47.666;9.160;2023-11-19T19:46:17;96964.69;;;12.36;100.00
13594;BME280;6449;47.666;9.160;2023-11-19T19:51:14;96959.69;;;12.33;100.00
13594;BME280;6449;47.666;9.160;2023-11-19T19:56:12;96967.78;;;12.41;100.00
13594;BME280;6449;47.666;9.160;2023-11-19T20:01:11;96960.53;;;12.54;100.00
13594;BME280;6449;47.666;9.160;2023-11-19T20:06:14;96976.81;;;12.48;100.00
13594;BME280;6449;47.666;9.160;2023-11-19T20:11:17;96973.59;;;12.45;100.00
13594;BME280;6449;47.666;9.160;2023-11-19T20:16:11;96986.06;;;12.43;100.00
13594;BME280;6449;47.666;9.160;2023-11-19T20:21:10;97006.25;;;12.42;100.00
13594;BME280;6449;47.666;9.160;2023-11-19T20:26:48;97005.84;;;12.26;100.00
13594;BME280;6449;47.666;9.160;2023-11-19T20:31:56;97005.75;;;12.16;100.00
13594;BME280;6449;47.666;9.160;2023-11-19T20:37:05;96993.28;;;12.18;100.00
13594;BME280;6449;47.666;9.160;2023-11-19T20:42:17;96992.25;;;12.10;100.00
13594;BME280;6449;47.666;9.160;2023-11-19T20:47:35;96981.03;;;12.07;100.00
13594;BME280;6449;47.666;9.160;2023-11-19T20:52:48;96976.59;;;12.08;100.00
13594;BME280;6449;47.666;9.160;2023-11-19T20:57:45;96979.69;;;12.13;100.00
13594;BME280;6449;47.666;9.160;2023-11-19T21:02:41;96992.59;;;12.16;100.00
13594;BME280;6449;47.666;9.160;2023-11-19T21:07:35;96989.88;;;12.06;100.00
13594;BME280;6449;47.666;9.160;2023-11-19T21:12:29;96996.56;;;12.11;100.00
13594;BME280;6449;47.666;9.160;2023-11-19T21:17:24;97001.72;;;12.01;100.00
13594;BME280;6449;47.666;9.160;2023-11-19T21:22:17;97002.31;;;12.04;100.00
13594;BME280;6449;47.666;9.160;2023-11-19T21:27:15;97014.16;;;11.99;100.00
13594;BME280;6449;47.666;9.160;2023-11-19T21:32:09;97027.50;;;12.07;100.00
13594;BME280;6449;47.666;9.160;2023-11-19T21:37:05;97022.22;;;12.07;100.00
13594;BME280;6449;47.666;9.160;2023-11-19T21:41:58;97020.47;;;11.85;100.00
13594;BME280;6449;47.666;9.160;2023-11-19T21:46:51;97020.47;;;11.85;100.00
13594;BME280;6449;47.666;9.160;2023-11-19T21:51:45;97011.28;;;11.91;100.00
13594;BME280;6449;47.666;9.160;2023-11-19T21:56:40;97010.66;;;11.76;100.00
13594;BME280;6449;47.666;9.160;2023-11-19T22:01:33;97017.13;;;11.72;100.00
13594;BME280;6449;47.666;9.160;2023-11-19T22:06:26;97011.16;;;11.70;100.00
13594;BME280;6449;47.666;9.160;2023-11-19T22:11:20;97020.22;;;11.54;100.00
13594;BME280;6449;47.666;9.160;2023-11-19T22:16:17;97018.06;;;11.48;100.00
13594;BME280;6449;47.666;9.160;2023-11-19T22:21:11;97005.16;;;11.34;100.00
13594;BME280;6449;47.666;9.160;2023-11-19T22:26:05;96992.53;;;11.28;100.00
13594;BME280;6449;47.666;9.160;2023-11-19T22:30:58;97000.16;;;11.20;100.00
13594;BME280;6449;47.666;9.160;2023-11-19T22:35:53;97005.06;;;11.13;100.00
13594;BME280;6449;47.666;9.160;2023-11-19T22:40:47;97004.66;;;10.95;100.00
13594;BME280;6449;47.666;9.160;2023-11-19T22:45:40;97002.50;;;11.00;100.00
13594;BME280;6449;47.666;9.160;2023-11-19T22:50:34;97000.13;;;10.97;100.00
13594;BME280;6449;47.666;9.160;2023-11-19T22:55:29;96994.50;;;11.02;100.00
13594;BME280;6449;47.666;9.160;2023-11-19T23:00:22;96992.63;;;11.04;100.00
13594;BME280;6449;47.666;9.160;2023-11-19T23:05:21;96987.13;;;10.96;100.00
13594;BME280;6449;47.666;9.160;2023-11-19T23:10:15;96992.97;;;10.99;100.00
13594;BME280;6449;47.666;9.160;2023-11-19T23:15:11;96995.38;;;11.02;100.00
13594;BME280;6449;47.666;9.160;2023-11-19T23:20:07;96979.16;;;10.97;100.00
13594;BME280;6449;47.666;9.160;2023-11-19T23:25:03;96984.63;;;10.94;100.00
13594;BME280;6449;47.666;9.160;2023-11-19T23:29:57;96979.38;;;10.94;100.00
13594;BME280;6449;47.666;9.160;2023-11-19T23:34:51;96986.06;;;10.98;100.00
13594;BME280;6449;47.666;9.160;2023-11-19T23:39:45;96980.91;;;10.97;100.00
13594;BME280;6449;47.666;9.160;2023-11-19T23:44:39;96979.38;;;11.06;100.00
13594;BME280;6449;47.666;9.160;2023-11-19T23:49:32;96979.38;;;11.06;100.00
13594;BME280;6449;47.666;9.160;2023-11-19T23:54:27;96971.63;;;10.93;100.00
13594;BME280;6449;47.666;9.160;2023-11-19T23:59:20;96971.63;;;11.04;100.00
